sensor_id;sensor_type;location;lat;lon;timestamp;P1;durP1;ratioP1;P2;durP2;ratioP2
44214;SDS011;29884;47.450;19.124;2024-03-08T00:02:06;12.40;;;6.68;;
44214;SDS011;29884;47.450;19.124;2024-03-08T00:04:32;11.65;;;6.68;;
44214;SDS011;29884;47.450;19.124;2024-03-08T00:06:58;12.15;;;6.53;;
44214;SDS011;29884;47.450;19.124;2024-03-08T00:09:23;11.57;;;6.32;;
44214;SDS011;29884;47.450;19.124;2024-03-08T00:11:49;12.77;;;6.97;;
44214;SDS011;29884;47.450;19.124;2024-03-08T00:14:15;12.52;;;6.90;;
44214;SDS011;29884;47.450;19.124;2024-03-08T00:16:41;12.50;;;6.88;;
44214;SDS011;29884;47.450;19.124;2024-03-08T00:19:08;12.32;;;6.75;;
44214;SDS011;29884;47.450;19.124;2024-03-08T00:21:34;12.55;;;7.18;;
44214;SDS011;29884;47.450;19.124;2024-03-08T00:24:00;12.43;;;6.22;;
44214;SDS011;29884;47.450;19.124;2024-03-08T00:26:26;15.98;;;6.90;;
44214;SDS011;29884;47.450;19.124;2024-03-08T00:28:52;12.35;;;6.93;;
44214;SDS011;29884;47.450;19.124;2024-03-08T00:31:18;13.20;;;6.50;;
44214;SDS011;29884;47.450;19.124;2024-03-08T00:33:45;12.55;;;6.78;;
44214;SDS011;29884;47.450;19.124;2024-03-08T00:36:10;14.73;;;7.47;;
44214;SDS011;29884;47.450;19.124;2024-03-08T00:38:36;15.10;;;7.28;;
44214;SDS011;29884;47.450;19.124;2024-03-08T00:41:02;12.15;;;7.15;;
44214;SDS011;29884;47.450;19.124;2024-03-08T00:43:27;12.90;;;6.78;;
44214;SDS011;29884;47.450;19.124;2024-03-08T00:45:55;12.55;;;6.65;;
44214;SDS011;29884;47.450;19.124;2024-03-08T00:48:20;14.90;;;7.25;;
44214;SDS011;29884;47.450;19.124;2024-03-08T00:50:46;13.35;;;7.57;;
44214;SDS011;29884;47.450;19.124;2024-03-08T00:53:12;13.38;;;7.13;;
44214;SDS011;29884;47.450;19.124;2024-03-08T00:55:38;15.07;;;7.68;;
44214;SDS011;29884;47.450;19.124;2024-03-08T00:58:04;16.25;;;7.88;;
44214;SDS011;29884;47.450;19.124;2024-03-08T01:00:30;14.55;;;7.78;;
44214;SDS011;29884;47.450;19.124;2024-03-08T01:02:55;13.70;;;7.18;;
44214;SDS011;29884;47.450;19.124;2024-03-08T01:05:21;17.38;;;7.78;;
44214;SDS011;29884;47.450;19.124;2024-03-08T01:07:49;16.27;;;8.23;;
44214;SDS011;29884;47.450;19.124;2024-03-08T01:10:15;18.38;;;9.00;;
44214;SDS011;29884;47.450;19.124;2024-03-08T01:12:41;17.27;;;9.52;;
44214;SDS011;29884;47.450;19.124;2024-03-08T01:15:08;18.45;;;9.02;;
44214;SDS011;29884;47.450;19.124;2024-03-08T01:17:35;19.73;;;9.73;;
44214;SDS011;29884;47.450;19.124;2024-03-08T01:20:01;19.50;;;8.70;;
44214;SDS011;29884;47.450;19.124;2024-03-08T01:22:27;19.63;;;9.13;;
44214;SDS011;29884;47.450;19.124;2024-03-08T01:24:54;19.55;;;9.63;;
44214;SDS011;29884;47.450;19.124;2024-03-08T01:27:20;19.45;;;9.27;;
44214;SDS011;29884;47.450;19.124;2024-03-08T01:29:46;20.02;;;9.20;;
44214;SDS011;29884;47.450;19.124;2024-03-08T01:32:12;19.40;;;9.93;;
44214;SDS011;29884;47.450;19.124;2024-03-08T01:34:37;20.00;;;9.88;;
44214;SDS011;29884;47.450;19.124;2024-03-08T01:37:03;20.52;;;10.30;;
44214;SDS011;29884;47.450;19.124;2024-03-08T01:39:28;23.75;;;10.60;;
44214;SDS011;29884;47.450;19.124;2024-03-08T01:41:54;24.35;;;11.15;;
44214;SDS011;29884;47.450;19.124;2024-03-08T01:44:20;23.95;;;11.85;;
44214;SDS011;29884;47.450;19.124;2024-03-08T01:46:46;25.55;;;12.07;;
44214;SDS011;29884;47.450;19.124;2024-03-08T01:49:13;28.38;;;13.38;;
44214;SDS011;29884;47.450;19.124;2024-03-08T01:51:39;29.73;;;13.10;;
44214;SDS011;29884;47.450;19.124;2024-03-08T01:54:06;26.88;;;12.25;;
44214;SDS011;29884;47.450;19.124;2024-03-08T01:56:34;26.13;;;12.45;;
44214;SDS011;29884;47.450;19.124;2024-03-08T01:59:01;26.75;;;12.77;;
44214;SDS011;29884;47.450;19.124;2024-03-08T02:01:27;28.67;;;13.10;;
44214;SDS011;29884;47.450;19.124;2024-03-08T02:03:53;26.45;;;12.90;;
44214;SDS011;29884;47.450;19.124;2024-03-08T02:06:19;24.70;;;12.50;;
44214;SDS011;29884;47.450;19.124;2024-03-08T02:08:45;27.15;;;12.95;;
44214;SDS011;29884;47.450;19.124;2024-03-08T02:11:11;27.13;;;12.13;;
44214;SDS011;29884;47.450;19.124;2024-03-08T02:13:37;27.73;;;14.02;;
44214;SDS011;29884;47.450;19.124;2024-03-08T02:16:03;25.02;;;12.20;;
44214;SDS011;29884;47.450;19.124;2024-03-08T02:18:30;29.27;;;13.63;;
44214;SDS011;29884;47.450;19.124;2024-03-08T02:21:00;25.90;;;12.73;;
44214;SDS011;29884;47.450;19.124;2024-03-08T02:23:30;27.80;;;13.15;;
44214;SDS011;29884;47.450;19.124;2024-03-08T02:25:57;34.25;;;13.73;;
44214;SDS011;29884;47.450;19.124;2024-03-08T02:28:23;27.33;;;13.27;;
44214;SDS011;29884;47.450;19.124;2024-03-08T02:30:50;28.80;;;14.05;;
44214;SDS011;29884;47.450;19.124;2024-03-08T02:33:16;30.35;;;13.05;;
44214;SDS011;29884;47.450;19.124;2024-03-08T02:35:43;27.35;;;12.40;;
44214;SDS011;29884;47.450;19.124;2024-03-08T02:38:14;31.15;;;13.88;;
44214;SDS011;29884;47.450;19.124;2024-03-08T02:40:44;29.95;;;14.35;;
44214;SDS011;29884;47.450;19.124;2024-03-08T02:43:12;29.95;;;13.02;;
44214;SDS011;29884;47.450;19.124;2024-03-08T02:45:39;27.65;;;12.82;;
44214;SDS011;29884;47.450;19.124;2024-03-08T02:48:07;30.35;;;13.70;;
44214;SDS011;29884;47.450;19.124;2024-03-08T02:50:33;28.38;;;12.85;;
44214;SDS011;29884;47.450;19.124;2024-03-08T02:53:00;32.80;;;14.90;;
44214;SDS011;29884;47.450;19.124;2024-03-08T02:55:26;30.02;;;13.35;;
44214;SDS011;29884;47.450;19.124;2024-03-08T02:57:52;34.10;;;13.82;;
44214;SDS011;29884;47.450;19.124;2024-03-08T03:00:19;28.05;;;13.50;;
44214;SDS011;29884;47.450;19.124;2024-03-08T03:02:46;30.88;;;13.82;;
44214;SDS011;29884;47.450;19.124;2024-03-08T03:05:12;29.15;;;12.68;;
44214;SDS011;29884;47.450;19.124;2024-03-08T03:07:38;33.78;;;13.90;;
44214;SDS011;29884;47.450;19.124;2024-03-08T03:10:04;28.75;;;13.35;;
44214;SDS011;29884;47.450;19.124;2024-03-08T03:12:30;35.50;;;13.82;;
44214;SDS011;29884;47.450;19.124;2024-03-08T03:14:56;37.22;;;14.30;;
44214;SDS011;29884;47.450;19.124;2024-03-08T03:17:25;33.50;;;13.65;;
44214;SDS011;29884;47.450;19.124;2024-03-08T03:19:52;28.45;;;13.43;;
44214;SDS011;29884;47.450;19.124;2024-03-08T03:22:20;30.50;;;13.63;;
44214;SDS011;29884;47.450;19.124;2024-03-08T03:24:45;29.95;;;13.85;;
44214;SDS011;29884;47.450;19.124;2024-03-08T03:27:11;30.10;;;13.27;;
44214;SDS011;29884;47.450;19.124;2024-03-08T03:29:38;30.42;;;13.95;;
44214;SDS011;29884;47.450;19.124;2024-03-08T03:32:10;31.05;;;13.10;;
44214;SDS011;29884;47.450;19.124;2024-03-08T03:34:37;27.27;;;13.45;;
44214;SDS011;29884;47.450;19.124;2024-03-08T03:37:03;31.38;;;13.93;;
44214;SDS011;29884;47.450;19.124;2024-03-08T03:39:29;28.88;;;13.07;;
44214;SDS011;29884;47.450;19.124;2024-03-08T03:44:39;32.92;;;13.27;;
44214;SDS011;29884;47.450;19.124;2024-03-08T03:47:05;33.17;;;13.48;;
44214;SDS011;29884;47.450;19.124;2024-03-08T03:49:32;30.85;;;13.98;;
44214;SDS011;29884;47.450;19.124;2024-03-08T03:51:58;30.23;;;13.30;;
44214;SDS011;29884;47.450;19.124;2024-03-08T03:54:24;32.75;;;14.32;;
44214;SDS011;29884;47.450;19.124;2024-03-08T03:56:49;31.85;;;14.00;;
44214;SDS011;29884;47.450;19.124;2024-03-08T03:59:17;30.95;;;13.65;;
44214;SDS011;29884;47.450;19.124;2024-03-08T04:01:43;31.58;;;14.25;;
44214;SDS011;29884;47.450;19.124;2024-03-08T04:04:09;31.30;;;13.35;;
44214;SDS011;29884;47.450;19.124;2024-03-08T04:06:37;32.45;;;13.60;;
44214;SDS011;29884;47.450;19.124;2024-03-08T04:09:03;29.25;;;13.77;;
44214;SDS011;29884;47.450;19.124;2024-03-08T04:11:29;28.73;;;13.57;;
44214;SDS011;29884;47.450;19.124;2024-03-08T04:13:55;33.78;;;14.15;;
44214;SDS011;29884;47.450;19.124;2024-03-08T04:16:21;31.30;;;13.93;;
44214;SDS011;29884;47.450;19.124;2024-03-08T04:18:46;33.08;;;14.52;;
44214;SDS011;29884;47.450;19.124;2024-03-08T04:21:12;31.85;;;14.20;;
44214;SDS011;29884;47.450;19.124;2024-03-08T04:23:38;30.25;;;13.65;;
44214;SDS011;29884;47.450;19.124;2024-03-08T04:26:04;31.67;;;14.30;;
44214;SDS011;29884;47.450;19.124;2024-03-08T04:28:31;28.60;;;12.85;;
44214;SDS011;29884;47.450;19.124;2024-03-08T04:30:57;30.38;;;13.23;;
44214;SDS011;29884;47.450;19.124;2024-03-08T04:33:23;28.38;;;12.70;;
44214;SDS011;29884;47.450;19.124;2024-03-08T04:35:48;31.60;;;13.60;;
44214;SDS011;29884;47.450;19.124;2024-03-08T04:38:14;29.98;;;13.30;;
44214;SDS011;29884;47.450;19.124;2024-03-08T04:40:40;34.47;;;13.68;;
44214;SDS011;29884;47.450;19.124;2024-03-08T04:43:06;28.55;;;13.98;;
44214;SDS011;29884;47.450;19.124;2024-03-08T04:45:33;33.30;;;14.43;;
44214;SDS011;29884;47.450;19.124;2024-03-08T04:47:59;33.85;;;13.75;;
44214;SDS011;29884;47.450;19.124;2024-03-08T04:50:24;34.88;;;13.90;;
44214;SDS011;29884;47.450;19.124;2024-03-08T04:52:52;32.95;;;13.93;;
44214;SDS011;29884;47.450;19.124;2024-03-08T04:55:18;29.38;;;13.85;;
44214;SDS011;29884;47.450;19.124;2024-03-08T04:57:46;28.50;;;13.10;;
44214;SDS011;29884;47.450;19.124;2024-03-08T05:00:12;32.83;;;13.80;;
44214;SDS011;29884;47.450;19.124;2024-03-08T05:02:39;34.72;;;14.70;;
44214;SDS011;29884;47.450;19.124;2024-03-08T05:05:06;32.40;;;14.23;;
44214;SDS011;29884;47.450;19.124;2024-03-08T05:07:32;32.83;;;14.20;;
44214;SDS011;29884;47.450;19.124;2024-03-08T05:09:58;32.90;;;14.38;;
44214;SDS011;29884;47.450;19.124;2024-03-08T05:12:24;28.25;;;13.70;;
44214;SDS011;29884;47.450;19.124;2024-03-08T05:14:49;31.35;;;13.55;;
44214;SDS011;29884;47.450;19.124;2024-03-08T05:17:15;31.30;;;14.00;;
44214;SDS011;29884;47.450;19.124;2024-03-08T05:19:42;31.05;;;14.65;;
44214;SDS011;29884;47.450;19.124;2024-03-08T05:22:08;29.92;;;13.75;;
44214;SDS011;29884;47.450;19.124;2024-03-08T05:24:33;27.85;;;13.35;;
44214;SDS011;29884;47.450;19.124;2024-03-08T05:26:59;33.05;;;14.55;;
44214;SDS011;29884;47.450;19.124;2024-03-08T05:29:25;33.60;;;14.02;;
44214;SDS011;29884;47.450;19.124;2024-03-08T05:31:51;27.85;;;13.48;;
44214;SDS011;29884;47.450;19.124;2024-03-08T05:34:17;37.45;;;13.50;;
44214;SDS011;29884;47.450;19.124;2024-03-08T05:36:44;30.92;;;14.10;;
44214;SDS011;29884;47.450;19.124;2024-03-08T05:39:14;34.47;;;13.32;;
44214;SDS011;29884;47.450;19.124;2024-03-08T05:41:41;33.65;;;13.75;;
44214;SDS011;29884;47.450;19.124;2024-03-08T05:44:08;31.30;;;14.38;;
44214;SDS011;29884;47.450;19.124;2024-03-08T05:46:33;30.08;;;13.95;;
44214;SDS011;29884;47.450;19.124;2024-03-08T05:49:01;31.33;;;13.38;;
44214;SDS011;29884;47.450;19.124;2024-03-08T05:51:35;33.38;;;13.68;;
44214;SDS011;29884;47.450;19.124;2024-03-08T05:54:05;33.80;;;13.85;;
44214;SDS011;29884;47.450;19.124;2024-03-08T05:56:35;30.30;;;13.10;;
44214;SDS011;29884;47.450;19.124;2024-03-08T05:59:01;31.10;;;13.85;;
44214;SDS011;29884;47.450;19.124;2024-03-08T06:01:28;33.65;;;13.77;;
44214;SDS011;29884;47.450;19.124;2024-03-08T06:03:56;33.95;;;14.48;;
44214;SDS011;29884;47.450;19.124;2024-03-08T06:06:22;30.48;;;13.68;;
44214;SDS011;29884;47.450;19.124;2024-03-08T06:08:49;34.50;;;13.73;;
44214;SDS011;29884;47.450;19.124;2024-03-08T06:11:15;35.03;;;13.52;;
44214;SDS011;29884;47.450;19.124;2024-03-08T06:13:42;31.75;;;14.32;;
44214;SDS011;29884;47.450;19.124;2024-03-08T06:16:08;29.17;;;13.48;;
44214;SDS011;29884;47.450;19.124;2024-03-08T06:18:34;30.95;;;13.85;;
44214;SDS011;29884;47.450;19.124;2024-03-08T06:21:04;32.38;;;13.98;;
44214;SDS011;29884;47.450;19.124;2024-03-08T06:23:33;32.70;;;14.18;;
44214;SDS011;29884;47.450;19.124;2024-03-08T06:25:59;29.02;;;13.45;;
44214;SDS011;29884;47.450;19.124;2024-03-08T06:28:25;32.38;;;13.98;;
44214;SDS011;29884;47.450;19.124;2024-03-08T06:30:51;30.73;;;13.57;;
44214;SDS011;29884;47.450;19.124;2024-03-08T06:33:17;34.65;;;14.98;;
44214;SDS011;29884;47.450;19.124;2024-03-08T06:35:43;30.00;;;13.40;;
44214;SDS011;29884;47.450;19.124;2024-03-08T06:38:09;31.02;;;13.93;;
44214;SDS011;29884;47.450;19.124;2024-03-08T06:40:36;33.10;;;14.55;;
44214;SDS011;29884;47.450;19.124;2024-03-08T06:43:02;35.22;;;14.40;;
44214;SDS011;29884;47.450;19.124;2024-03-08T06:45:30;33.70;;;14.85;;
44214;SDS011;29884;47.450;19.124;2024-03-08T06:47:56;30.25;;;13.75;;
44214;SDS011;29884;47.450;19.124;2024-03-08T06:50:22;32.72;;;13.38;;
44214;SDS011;29884;47.450;19.124;2024-03-08T06:52:48;31.50;;;13.70;;
44214;SDS011;29884;47.450;19.124;2024-03-08T06:55:18;28.88;;;14.05;;
44214;SDS011;29884;47.450;19.124;2024-03-08T06:57:47;30.77;;;13.50;;
44214;SDS011;29884;47.450;19.124;2024-03-08T07:00:12;32.28;;;13.70;;
44214;SDS011;29884;47.450;19.124;2024-03-08T07:02:43;34.88;;;14.60;;
44214;SDS011;29884;47.450;19.124;2024-03-08T07:05:11;32.33;;;14.00;;
44214;SDS011;29884;47.450;19.124;2024-03-08T07:07:36;30.10;;;13.70;;
44214;SDS011;29884;47.450;19.124;2024-03-08T07:10:02;31.23;;;14.00;;
44214;SDS011;29884;47.450;19.124;2024-03-08T07:12:28;36.85;;;14.48;;
44214;SDS011;29884;47.450;19.124;2024-03-08T07:14:53;35.30;;;14.93;;
44214;SDS011;29884;47.450;19.124;2024-03-08T07:17:19;35.17;;;14.25;;
44214;SDS011;29884;47.450;19.124;2024-03-08T07:19:45;41.22;;;15.57;;
44214;SDS011;29884;47.450;19.124;2024-03-08T07:22:10;38.35;;;13.93;;
44214;SDS011;29884;47.450;19.124;2024-03-08T07:24:36;39.20;;;14.95;;
44214;SDS011;29884;47.450;19.124;2024-03-08T07:27:02;36.08;;;14.20;;
44214;SDS011;29884;47.450;19.124;2024-03-08T07:29:30;28.08;;;12.98;;
44214;SDS011;29884;47.450;19.124;2024-03-08T07:31:56;34.50;;;14.57;;
44214;SDS011;29884;47.450;19.124;2024-03-08T07:34:37;35.13;;;14.70;;
44214;SDS011;29884;47.450;19.124;2024-03-08T07:37:04;37.00;;;14.20;;
44214;SDS011;29884;47.450;19.124;2024-03-08T07:39:30;31.25;;;13.88;;
44214;SDS011;29884;47.450;19.124;2024-03-08T07:41:56;33.55;;;14.10;;
44214;SDS011;29884;47.450;19.124;2024-03-08T07:44:22;36.72;;;14.55;;
44214;SDS011;29884;47.450;19.124;2024-03-08T07:46:48;35.42;;;14.82;;
44214;SDS011;29884;47.450;19.124;2024-03-08T07:49:14;36.47;;;14.55;;
44214;SDS011;29884;47.450;19.124;2024-03-08T07:51:40;33.13;;;14.38;;
44214;SDS011;29884;47.450;19.124;2024-03-08T07:54:06;38.45;;;14.55;;
44214;SDS011;29884;47.450;19.124;2024-03-08T07:56:34;37.67;;;15.30;;
44214;SDS011;29884;47.450;19.124;2024-03-08T07:59:01;34.42;;;14.75;;
44214;SDS011;29884;47.450;19.124;2024-03-08T08:01:28;33.53;;;13.40;;
44214;SDS011;29884;47.450;19.124;2024-03-08T08:03:55;37.40;;;14.57;;
44214;SDS011;29884;47.450;19.124;2024-03-08T08:06:21;38.42;;;14.63;;
44214;SDS011;29884;47.450;19.124;2024-03-08T08:08:47;38.03;;;15.20;;
44214;SDS011;29884;47.450;19.124;2024-03-08T08:11:13;42.15;;;15.32;;
44214;SDS011;29884;47.450;19.124;2024-03-08T08:13:40;38.47;;;14.90;;
44214;SDS011;29884;47.450;19.124;2024-03-08T08:16:07;43.35;;;15.63;;
44214;SDS011;29884;47.450;19.124;2024-03-08T08:18:32;38.20;;;15.23;;
44214;SDS011;29884;47.450;19.124;2024-03-08T08:20:58;40.15;;;15.63;;
44214;SDS011;29884;47.450;19.124;2024-03-08T08:23:25;34.50;;;14.07;;
44214;SDS011;29884;47.450;19.124;2024-03-08T08:25:51;41.65;;;16.23;;
44214;SDS011;29884;47.450;19.124;2024-03-08T08:28:17;38.63;;;15.82;;
44214;SDS011;29884;47.450;19.124;2024-03-08T08:30:43;39.40;;;15.82;;
44214;SDS011;29884;47.450;19.124;2024-03-08T08:33:09;37.10;;;14.45;;
44214;SDS011;29884;47.450;19.124;2024-03-08T08:35:36;36.95;;;14.50;;
44214;SDS011;29884;47.450;19.124;2024-03-08T08:38:02;35.63;;;14.57;;
44214;SDS011;29884;47.450;19.124;2024-03-08T08:40:36;40.63;;;16.02;;
44214;SDS011;29884;47.450;19.124;2024-03-08T08:43:08;42.40;;;15.57;;
44214;SDS011;29884;47.450;19.124;2024-03-08T08:45:34;41.80;;;15.52;;
44214;SDS011;29884;47.450;19.124;2024-03-08T08:47:59;38.13;;;15.60;;
44214;SDS011;29884;47.450;19.124;2024-03-08T08:50:26;39.22;;;16.23;;
44214;SDS011;29884;47.450;19.124;2024-03-08T08:52:53;40.42;;;15.52;;
44214;SDS011;29884;47.450;19.124;2024-03-08T08:55:19;37.63;;;15.48;;
44214;SDS011;29884;47.450;19.124;2024-03-08T08:57:50;39.78;;;15.52;;
44214;SDS011;29884;47.450;19.124;2024-03-08T09:00:17;40.53;;;15.35;;
44214;SDS011;29884;47.450;19.124;2024-03-08T09:02:45;36.83;;;15.10;;
44214;SDS011;29884;47.450;19.124;2024-03-08T09:05:11;37.25;;;15.18;;
44214;SDS011;29884;47.450;19.124;2024-03-08T09:07:36;35.25;;;15.23;;
44214;SDS011;29884;47.450;19.124;2024-03-08T09:10:03;40.22;;;15.32;;
44214;SDS011;29884;47.450;19.124;2024-03-08T09:12:29;39.75;;;15.85;;
44214;SDS011;29884;47.450;19.124;2024-03-08T09:14:54;37.67;;;14.63;;
44214;SDS011;29884;47.450;19.124;2024-03-08T09:17:20;32.95;;;14.73;;
44214;SDS011;29884;47.450;19.124;2024-03-08T09:19:49;34.65;;;14.95;;
44214;SDS011;29884;47.450;19.124;2024-03-08T09:22:14;35.28;;;14.57;;
44214;SDS011;29884;47.450;19.124;2024-03-08T09:24:40;37.65;;;15.20;;
44214;SDS011;29884;47.450;19.124;2024-03-08T09:27:08;34.17;;;14.20;;
44214;SDS011;29884;47.450;19.124;2024-03-08T09:29:34;33.53;;;14.90;;
44214;SDS011;29884;47.450;19.124;2024-03-08T09:32:00;34.97;;;14.77;;
44214;SDS011;29884;47.450;19.124;2024-03-08T09:34:26;33.83;;;14.38;;
44214;SDS011;29884;47.450;19.124;2024-03-08T09:36:51;32.40;;;14.55;;
44214;SDS011;29884;47.450;19.124;2024-03-08T09:39:18;35.15;;;14.27;;
44214;SDS011;29884;47.450;19.124;2024-03-08T09:41:45;34.03;;;14.35;;
44214;SDS011;29884;47.450;19.124;2024-03-08T09:44:15;37.55;;;13.75;;
44214;SDS011;29884;47.450;19.124;2024-03-08T09:46:41;38.45;;;14.65;;
44214;SDS011;29884;47.450;19.124;2024-03-08T09:49:07;37.25;;;15.57;;
44214;SDS011;29884;47.450;19.124;2024-03-08T09:51:34;35.75;;;14.90;;
44214;SDS011;29884;47.450;19.124;2024-03-08T09:54:05;33.28;;;15.35;;
44214;SDS011;29884;47.450;19.124;2024-03-08T09:56:34;33.90;;;14.80;;
44214;SDS011;29884;47.450;19.124;2024-03-08T09:59:01;35.38;;;15.80;;
44214;SDS011;29884;47.450;19.124;2024-03-08T10:01:37;33.47;;;14.68;;
44214;SDS011;29884;47.450;19.124;2024-03-08T10:04:04;33.88;;;14.73;;
44214;SDS011;29884;47.450;19.124;2024-03-08T10:06:30;36.55;;;15.43;;
44214;SDS011;29884;47.450;19.124;2024-03-08T10:08:56;30.17;;;14.18;;
44214;SDS011;29884;47.450;19.124;2024-03-08T10:11:22;27.45;;;13.10;;
44214;SDS011;29884;47.450;19.124;2024-03-08T10:13:48;32.85;;;13.88;;
44214;SDS011;29884;47.450;19.124;2024-03-08T10:16:15;29.13;;;13.25;;
44214;SDS011;29884;47.450;19.124;2024-03-08T10:18:42;30.40;;;12.82;;
44214;SDS011;29884;47.450;19.124;2024-03-08T10:21:08;29.27;;;14.13;;
44214;SDS011;29884;47.450;19.124;2024-03-08T10:23:39;29.20;;;13.52;;
44214;SDS011;29884;47.450;19.124;2024-03-08T10:26:11;32.58;;;14.00;;
44214;SDS011;29884;47.450;19.124;2024-03-08T10:28:50;33.80;;;13.90;;
44214;SDS011;29884;47.450;19.124;2024-03-08T10:31:17;30.23;;;13.13;;
44214;SDS011;29884;47.450;19.124;2024-03-08T10:33:44;28.55;;;14.02;;
44214;SDS011;29884;47.450;19.124;2024-03-08T10:36:14;30.95;;;13.40;;
44214;SDS011;29884;47.450;19.124;2024-03-08T10:38:41;30.83;;;14.50;;
44214;SDS011;29884;47.450;19.124;2024-03-08T10:41:12;31.67;;;14.30;;
44214;SDS011;29884;47.450;19.124;2024-03-08T10:49:15;31.00;;;14.25;;
44214;SDS011;29884;47.450;19.124;2024-03-08T10:51:42;31.65;;;14.45;;
44214;SDS011;29884;47.450;19.124;2024-03-08T10:54:09;31.30;;;14.00;;
44214;SDS011;29884;47.450;19.124;2024-03-08T10:56:36;34.55;;;14.25;;
44214;SDS011;29884;47.450;19.124;2024-03-08T10:59:04;37.58;;;15.70;;
44214;SDS011;29884;47.450;19.124;2024-03-08T11:01:33;34.42;;;15.30;;
44214;SDS011;29884;47.450;19.124;2024-03-08T11:03:59;34.45;;;15.18;;
44214;SDS011;29884;47.450;19.124;2024-03-08T11:06:41;34.70;;;15.45;;
44214;SDS011;29884;47.450;19.124;2024-03-08T11:09:29;33.22;;;14.38;;
44214;SDS011;29884;47.450;19.124;2024-03-08T11:12:41;33.22;;;14.50;;
44214;SDS011;29884;47.450;19.124;2024-03-08T11:15:00;33.78;;;15.15;;
44214;SDS011;29884;47.450;19.124;2024-03-08T11:19:58;26.20;;;13.52;;
44214;SDS011;29884;47.450;19.124;2024-03-08T11:22:31;30.27;;;13.70;;
44214;SDS011;29884;47.450;19.124;2024-03-08T11:25:04;29.70;;;14.00;;
44214;SDS011;29884;47.450;19.124;2024-03-08T11:27:35;26.75;;;13.43;;
44214;SDS011;29884;47.450;19.124;2024-03-08T11:30:05;31.02;;;13.60;;
44214;SDS011;29884;47.450;19.124;2024-03-08T11:32:43;27.52;;;13.65;;
44214;SDS011;29884;47.450;19.124;2024-03-08T11:35:19;26.13;;;13.65;;
44214;SDS011;29884;47.450;19.124;2024-03-08T11:37:46;21.50;;;11.75;;
44214;SDS011;29884;47.450;19.124;2024-03-08T11:40:13;25.95;;;11.85;;
44214;SDS011;29884;47.450;19.124;2024-03-08T11:42:45;25.60;;;13.00;;
44214;SDS011;29884;47.450;19.124;2024-03-08T11:45:12;26.38;;;12.13;;
44214;SDS011;29884;47.450;19.124;2024-03-08T11:47:41;25.33;;;13.25;;
44214;SDS011;29884;47.450;19.124;2024-03-08T11:50:13;27.00;;;13.35;;
44214;SDS011;29884;47.450;19.124;2024-03-08T11:52:39;28.75;;;13.30;;
44214;SDS011;29884;47.450;19.124;2024-03-08T11:55:05;26.85;;;13.00;;
44214;SDS011;29884;47.450;19.124;2024-03-08T11:57:31;28.45;;;13.52;;
44214;SDS011;29884;47.450;19.124;2024-03-08T11:59:57;28.08;;;14.25;;
44214;SDS011;29884;47.450;19.124;2024-03-08T12:04:56;29.92;;;14.10;;
44214;SDS011;29884;47.450;19.124;2024-03-08T12:07:24;27.20;;;14.07;;
44214;SDS011;29884;47.450;19.124;2024-03-08T12:12:47;25.83;;;13.38;;
44214;SDS011;29884;47.450;19.124;2024-03-08T12:15:20;21.30;;;11.13;;
44214;SDS011;29884;47.450;19.124;2024-03-08T12:17:48;22.83;;;11.50;;
44214;SDS011;29884;47.450;19.124;2024-03-08T12:22:51;18.98;;;9.63;;
44214;SDS011;29884;47.450;19.124;2024-03-08T12:25:25;18.83;;;9.07;;
44214;SDS011;29884;47.450;19.124;2024-03-08T12:28:09;17.70;;;9.02;;
44214;SDS011;29884;47.450;19.124;2024-03-08T12:30:43;13.00;;;7.50;;
44214;SDS011;29884;47.450;19.124;2024-03-08T12:33:12;13.43;;;7.75;;
44214;SDS011;29884;47.450;19.124;2024-03-08T12:35:37;11.32;;;7.35;;
44214;SDS011;29884;47.450;19.124;2024-03-08T12:38:03;14.75;;;7.20;;
44214;SDS011;29884;47.450;19.124;2024-03-08T12:40:31;11.63;;;7.13;;
44214;SDS011;29884;47.450;19.124;2024-03-08T12:42:59;11.30;;;6.97;;
44214;SDS011;29884;47.450;19.124;2024-03-08T12:45:25;11.77;;;6.70;;
44214;SDS011;29884;47.450;19.124;2024-03-08T12:47:52;12.23;;;7.25;;
44214;SDS011;29884;47.450;19.124;2024-03-08T12:50:19;14.15;;;7.15;;
44214;SDS011;29884;47.450;19.124;2024-03-08T12:52:46;12.77;;;7.80;;
44214;SDS011;29884;47.450;19.124;2024-03-08T12:55:11;13.57;;;7.45;;
44214;SDS011;29884;47.450;19.124;2024-03-08T12:57:37;10.23;;;6.32;;
44214;SDS011;29884;47.450;19.124;2024-03-08T13:00:04;10.23;;;6.10;;
44214;SDS011;29884;47.450;19.124;2024-03-08T13:02:30;9.70;;;6.32;;
44214;SDS011;29884;47.450;19.124;2024-03-08T13:04:57;8.43;;;5.85;;
44214;SDS011;29884;47.450;19.124;2024-03-08T13:07:23;10.27;;;5.45;;
44214;SDS011;29884;47.450;19.124;2024-03-08T13:09:51;10.32;;;5.72;;
44214;SDS011;29884;47.450;19.124;2024-03-08T13:12:18;10.60;;;5.90;;
44214;SDS011;29884;47.450;19.124;2024-03-08T13:14:45;8.68;;;6.00;;
44214;SDS011;29884;47.450;19.124;2024-03-08T13:17:11;15.75;;;7.55;;
44214;SDS011;29884;47.450;19.124;2024-03-08T13:19:37;14.85;;;7.72;;
44214;SDS011;29884;47.450;19.124;2024-03-08T13:22:03;16.92;;;8.40;;
44214;SDS011;29884;47.450;19.124;2024-03-08T13:24:30;18.45;;;9.77;;
44214;SDS011;29884;47.450;19.124;2024-03-08T13:26:55;19.95;;;10.13;;
44214;SDS011;29884;47.450;19.124;2024-03-08T13:29:21;18.92;;;9.30;;
44214;SDS011;29884;47.450;19.124;2024-03-08T13:31:48;18.70;;;9.88;;
44214;SDS011;29884;47.450;19.124;2024-03-08T13:34:16;18.83;;;9.75;;
44214;SDS011;29884;47.450;19.124;2024-03-08T13:36:43;19.88;;;9.75;;
44214;SDS011;29884;47.450;19.124;2024-03-08T13:39:10;20.73;;;10.18;;
44214;SDS011;29884;47.450;19.124;2024-03-08T13:41:40;20.25;;;10.02;;
44214;SDS011;29884;47.450;19.124;2024-03-08T13:44:06;19.70;;;9.93;;
44214;SDS011;29884;47.450;19.124;2024-03-08T13:46:32;22.92;;;11.07;;
44214;SDS011;29884;47.450;19.124;2024-03-08T13:49:03;22.77;;;10.27;;
44214;SDS011;29884;47.450;19.124;2024-03-08T13:51:36;21.50;;;10.50;;
44214;SDS011;29884;47.450;19.124;2024-03-08T13:54:01;21.45;;;10.77;;
44214;SDS011;29884;47.450;19.124;2024-03-08T13:56:27;19.13;;;10.02;;
44214;SDS011;29884;47.450;19.124;2024-03-08T13:58:56;20.52;;;10.68;;
44214;SDS011;29884;47.450;19.124;2024-03-08T14:01:22;17.98;;;9.80;;
44214;SDS011;29884;47.450;19.124;2024-03-08T14:03:48;20.65;;;10.30;;
44214;SDS011;29884;47.450;19.124;2024-03-08T14:06:14;23.90;;;10.30;;
44214;SDS011;29884;47.450;19.124;2024-03-08T14:08:39;19.02;;;9.43;;
44214;SDS011;29884;47.450;19.124;2024-03-08T14:11:05;19.52;;;9.93;;
44214;SDS011;29884;47.450;19.124;2024-03-08T14:13:43;25.58;;;11.05;;
44214;SDS011;29884;47.450;19.124;2024-03-08T14:16:10;18.73;;;10.32;;
44214;SDS011;29884;47.450;19.124;2024-03-08T14:18:36;22.00;;;11.00;;
44214;SDS011;29884;47.450;19.124;2024-03-08T14:21:03;23.30;;;10.73;;
44214;SDS011;29884;47.450;19.124;2024-03-08T14:23:29;21.40;;;10.48;;
44214;SDS011;29884;47.450;19.124;2024-03-08T14:25:55;22.48;;;10.77;;
44214;SDS011;29884;47.450;19.124;2024-03-08T14:28:20;25.23;;;10.60;;
44214;SDS011;29884;47.450;19.124;2024-03-08T14:30:47;20.48;;;10.98;;